sensor_id;sensor_type;location;lat;lon;timestamp;P1;durP1;ratioP1;P2;durP2;ratioP2
15327;SDS011;7764;51.430;6.840;2023-05-15T00:01:56;33.28;;;24.15;;
15327;SDS011;7764;51.430;6.840;2023-05-15T00:04:23;32.83;;;24.30;;
15327;SDS011;7764;51.430;6.840;2023-05-15T00:06:50;31.80;;;25.20;;
15327;SDS011;7764;51.430;6.840;2023-05-15T00:09:18;35.88;;;25.38;;
15327;SDS011;7764;51.430;6.840;2023-05-15T00:11:45;34.70;;;26.05;;
15327;SDS011;7764;51.430;6.840;2023-05-15T00:14:12;32.97;;;25.58;;
15327;SDS011;7764;51.430;6.840;2023-05-15T00:16:39;37.27;;;26.97;;
15327;SDS011;7764;51.430;6.840;2023-05-15T00:19:06;38.63;;;26.37;;
15327;SDS011;7764;51.430;6.840;2023-05-15T00:21:33;37.20;;;26.97;;
15327;SDS011;7764;51.430;6.840;2023-05-15T00:24:00;37.77;;;27.10;;
15327;SDS011;7764;51.430;6.840;2023-05-15T00:26:28;38.73;;;27.83;;
15327;SDS011;7764;51.430;6.840;2023-05-15T00:28:55;37.97;;;27.55;;
15327;SDS011;7764;51.430;6.840;2023-05-15T00:31:22;39.85;;;28.30;;
15327;SDS011;7764;51.430;6.840;2023-05-15T00:33:49;38.47;;;27.63;;
15327;SDS011;7764;51.430;6.840;2023-05-15T00:36:15;37.45;;;28.30;;
15327;SDS011;7764;51.430;6.840;2023-05-15T00:38:45;38.93;;;28.27;;
15327;SDS011;7764;51.430;6.840;2023-05-15T00:41:12;41.70;;;29.13;;
15327;SDS011;7764;51.430;6.840;2023-05-15T00:43:42;41.60;;;28.80;;
15327;SDS011;7764;51.430;6.840;2023-05-15T00:46:11;44.00;;;28.77;;
15327;SDS011;7764;51.430;6.840;2023-05-15T00:48:38;43.97;;;29.73;;
15327;SDS011;7764;51.430;6.840;2023-05-15T00:51:07;40.60;;;29.37;;
15327;SDS011;7764;51.430;6.840;2023-05-15T00:53:34;39.23;;;29.17;;
15327;SDS011;7764;51.430;6.840;2023-05-15T00:56:02;39.47;;;28.73;;
15327;SDS011;7764;51.430;6.840;2023-05-15T00:58:30;41.77;;;31.03;;
15327;SDS011;7764;51.430;6.840;2023-05-15T01:01:00;40.43;;;29.83;;
15327;SDS011;7764;51.430;6.840;2023-05-15T01:03:27;42.50;;;29.93;;
15327;SDS011;7764;51.430;6.840;2023-05-15T01:05:54;45.57;;;31.47;;
15327;SDS011;7764;51.430;6.840;2023-05-15T01:08:22;44.40;;;30.80;;
15327;SDS011;7764;51.430;6.840;2023-05-15T01:10:52;45.00;;;30.23;;
15327;SDS011;7764;51.430;6.840;2023-05-15T01:13:20;45.10;;;31.83;;
15327;SDS011;7764;51.430;6.840;2023-05-15T01:15:48;42.80;;;30.70;;
15327;SDS011;7764;51.430;6.840;2023-05-15T01:18:16;42.00;;;31.00;;
15327;SDS011;7764;51.430;6.840;2023-05-15T01:20:46;45.40;;;32.20;;
15327;SDS011;7764;51.430;6.840;2023-05-15T01:23:30;44.17;;;31.87;;
15327;SDS011;7764;51.430;6.840;2023-05-15T01:26:23;43.63;;;31.43;;
15327;SDS011;7764;51.430;6.840;2023-05-15T01:29:10;42.17;;;30.17;;
15327;SDS011;7764;51.430;6.840;2023-05-15T01:31:43;43.50;;;31.57;;
15327;SDS011;7764;51.430;6.840;2023-05-15T01:34:15;46.23;;;31.03;;
15327;SDS011;7764;51.430;6.840;2023-05-15T01:36:45;43.07;;;31.13;;
15327;SDS011;7764;51.430;6.840;2023-05-15T01:39:18;42.43;;;30.83;;
15327;SDS011;7764;51.430;6.840;2023-05-15T01:41:48;43.57;;;31.20;;
15327;SDS011;7764;51.430;6.840;2023-05-15T01:44:21;46.10;;;31.47;;
15327;SDS011;7764;51.430;6.840;2023-05-15T01:46:54;40.77;;;31.17;;
15327;SDS011;7764;51.430;6.840;2023-05-15T01:49:25;44.80;;;33.27;;
15327;SDS011;7764;51.430;6.840;2023-05-15T01:51:54;42.37;;;31.17;;
15327;SDS011;7764;51.430;6.840;2023-05-15T01:54:24;47.53;;;33.37;;
15327;SDS011;7764;51.430;6.840;2023-05-15T01:56:54;44.43;;;31.90;;
15327;SDS011;7764;51.430;6.840;2023-05-15T01:59:24;43.90;;;32.20;;
15327;SDS011;7764;51.430;6.840;2023-05-15T02:01:51;45.70;;;31.63;;
15327;SDS011;7764;51.430;6.840;2023-05-15T02:04:18;48.53;;;32.60;;
15327;SDS011;7764;51.430;6.840;2023-05-15T02:06:46;44.83;;;32.40;;
15327;SDS011;7764;51.430;6.840;2023-05-15T02:09:14;46.70;;;32.37;;
15327;SDS011;7764;51.430;6.840;2023-05-15T02:11:42;45.47;;;31.97;;
15327;SDS011;7764;51.430;6.840;2023-05-15T02:14:09;48.20;;;33.77;;
15327;SDS011;7764;51.430;6.840;2023-05-15T02:16:39;48.30;;;32.83;;
15327;SDS011;7764;51.430;6.840;2023-05-15T02:19:05;46.47;;;32.67;;
15327;SDS011;7764;51.430;6.840;2023-05-15T02:21:32;43.13;;;32.07;;
15327;SDS011;7764;51.430;6.840;2023-05-15T02:23:59;44.53;;;32.57;;
15327;SDS011;7764;51.430;6.840;2023-05-15T02:26:29;44.40;;;32.03;;
15327;SDS011;7764;51.430;6.840;2023-05-15T02:29:05;45.17;;;31.20;;
15327;SDS011;7764;51.430;6.840;2023-05-15T02:31:42;43.87;;;32.70;;
15327;SDS011;7764;51.430;6.840;2023-05-15T02:34:16;42.30;;;31.57;;
15327;SDS011;7764;51.430;6.840;2023-05-15T02:36:47;43.63;;;32.47;;
15327;SDS011;7764;51.430;6.840;2023-05-15T02:39:18;48.03;;;32.80;;
15327;SDS011;7764;51.430;6.840;2023-05-15T02:41:47;43.57;;;31.80;;
15327;SDS011;7764;51.430;6.840;2023-05-15T02:44:16;42.67;;;32.40;;
15327;SDS011;7764;51.430;6.840;2023-05-15T02:46:44;41.83;;;30.50;;
15327;SDS011;7764;51.430;6.840;2023-05-15T02:49:13;40.53;;;30.60;;
15327;SDS011;7764;51.430;6.840;2023-05-15T02:51:40;42.50;;;31.67;;
15327;SDS011;7764;51.430;6.840;2023-05-15T02:54:07;46.07;;;31.97;;
15327;SDS011;7764;51.430;6.840;2023-05-15T02:56:34;48.23;;;34.27;;
15327;SDS011;7764;51.430;6.840;2023-05-15T02:59:01;42.60;;;31.67;;
15327;SDS011;7764;51.430;6.840;2023-05-15T03:01:28;45.43;;;32.73;;
15327;SDS011;7764;51.430;6.840;2023-05-15T03:03:56;42.93;;;31.53;;
15327;SDS011;7764;51.430;6.840;2023-05-15T03:06:23;42.07;;;30.80;;
15327;SDS011;7764;51.430;6.840;2023-05-15T03:08:50;42.57;;;30.83;;
15327;SDS011;7764;51.430;6.840;2023-05-15T03:11:17;41.03;;;31.23;;
15327;SDS011;7764;51.430;6.840;2023-05-15T03:13:44;43.33;;;32.20;;
15327;SDS011;7764;51.430;6.840;2023-05-15T03:16:11;48.43;;;32.77;;
15327;SDS011;7764;51.430;6.840;2023-05-15T03:18:38;46.53;;;30.90;;
15327;SDS011;7764;51.430;6.840;2023-05-15T03:21:06;40.07;;;29.50;;
15327;SDS011;7764;51.430;6.840;2023-05-15T03:23:33;39.03;;;28.67;;
15327;SDS011;7764;51.430;6.840;2023-05-15T03:26:01;38.60;;;28.97;;
15327;SDS011;7764;51.430;6.840;2023-05-15T03:28:27;47.23;;;35.37;;
15327;SDS011;7764;51.430;6.840;2023-05-15T03:30:54;39.43;;;28.90;;
15327;SDS011;7764;51.430;6.840;2023-05-15T03:33:21;46.53;;;33.33;;
15327;SDS011;7764;51.430;6.840;2023-05-15T03:35:48;42.37;;;29.13;;
15327;SDS011;7764;51.430;6.840;2023-05-15T03:38:18;41.37;;;28.70;;
15327;SDS011;7764;51.430;6.840;2023-05-15T03:40:45;37.90;;;29.07;;
15327;SDS011;7764;51.430;6.840;2023-05-15T03:43:12;45.83;;;30.00;;
15327;SDS011;7764;51.430;6.840;2023-05-15T03:45:38;49.67;;;30.57;;
15327;SDS011;7764;51.430;6.840;2023-05-15T03:48:05;45.67;;;30.87;;
15327;SDS011;7764;51.430;6.840;2023-05-15T03:50:32;47.20;;;33.03;;
15327;SDS011;7764;51.430;6.840;2023-05-15T03:52:59;58.13;;;37.30;;
15327;SDS011;7764;51.430;6.840;2023-05-15T03:55:27;63.57;;;40.77;;
15327;SDS011;7764;51.430;6.840;2023-05-15T03:57:54;83.30;;;48.07;;
15327;SDS011;7764;51.430;6.840;2023-05-15T04:00:23;52.70;;;33.90;;
15327;SDS011;7764;51.430;6.840;2023-05-15T04:02:49;48.30;;;33.20;;
15327;SDS011;7764;51.430;6.840;2023-05-15T04:05:16;47.50;;;32.27;;
15327;SDS011;7764;51.430;6.840;2023-05-15T04:07:46;53.13;;;34.53;;
15327;SDS011;7764;51.430;6.840;2023-05-15T04:10:12;57.40;;;37.17;;
15327;SDS011;7764;51.430;6.840;2023-05-15T04:12:41;59.60;;;38.23;;
15327;SDS011;7764;51.430;6.840;2023-05-15T04:15:14;57.10;;;39.17;;
15327;SDS011;7764;51.430;6.840;2023-05-15T04:17:42;59.20;;;36.83;;
15327;SDS011;7764;51.430;6.840;2023-05-15T04:20:09;65.77;;;39.77;;
15327;SDS011;7764;51.430;6.840;2023-05-15T04:22:38;74.90;;;43.30;;
15327;SDS011;7764;51.430;6.840;2023-05-15T04:25:05;93.27;;;64.27;;
15327;SDS011;7764;51.430;6.840;2023-05-15T04:27:33;80.33;;;48.13;;
15327;SDS011;7764;51.430;6.840;2023-05-15T04:30:01;94.20;;;54.67;;
15327;SDS011;7764;51.430;6.840;2023-05-15T04:32:28;99.27;;;57.17;;
15327;SDS011;7764;51.430;6.840;2023-05-15T04:34:55;81.30;;;48.40;;
15327;SDS011;7764;51.430;6.840;2023-05-15T04:37:22;91.70;;;51.67;;
15327;SDS011;7764;51.430;6.840;2023-05-15T04:39:49;105.07;;;59.63;;
15327;SDS011;7764;51.430;6.840;2023-05-15T04:42:16;105.03;;;56.83;;
15327;SDS011;7764;51.430;6.840;2023-05-15T04:44:43;108.77;;;62.27;;
15327;SDS011;7764;51.430;6.840;2023-05-15T04:47:12;117.43;;;66.50;;
15327;SDS011;7764;51.430;6.840;2023-05-15T04:49:40;125.07;;;67.27;;
15327;SDS011;7764;51.430;6.840;2023-05-15T04:52:07;111.67;;;64.90;;
15327;SDS011;7764;51.430;6.840;2023-05-15T04:54:34;110.53;;;62.73;;
15327;SDS011;7764;51.430;6.840;2023-05-15T04:57:00;109.03;;;60.47;;
15327;SDS011;7764;51.430;6.840;2023-05-15T04:59:27;100.13;;;57.30;;
15327;SDS011;7764;51.430;6.840;2023-05-15T05:01:54;109.37;;;62.73;;
15327;SDS011;7764;51.430;6.840;2023-05-15T05:04:23;110.30;;;62.70;;
15327;SDS011;7764;51.430;6.840;2023-05-15T05:06:50;104.27;;;59.90;;
15327;SDS011;7764;51.430;6.840;2023-05-15T05:09:17;104.57;;;59.57;;
15327;SDS011;7764;51.430;6.840;2023-05-15T05:11:44;113.53;;;62.90;;
15327;SDS011;7764;51.430;6.840;2023-05-15T05:14:12;109.53;;;61.33;;
15327;SDS011;7764;51.430;6.840;2023-05-15T05:16:39;115.67;;;65.20;;
15327;SDS011;7764;51.430;6.840;2023-05-15T05:19:06;114.03;;;64.83;;
15327;SDS011;7764;51.430;6.840;2023-05-15T05:21:35;118.10;;;63.23;;
15327;SDS011;7764;51.430;6.840;2023-05-15T05:24:02;105.23;;;59.87;;
15327;SDS011;7764;51.430;6.840;2023-05-15T05:26:28;90.13;;;52.47;;
15327;SDS011;7764;51.430;6.840;2023-05-15T05:28:55;75.37;;;46.87;;
15327;SDS011;7764;51.430;6.840;2023-05-15T05:31:22;90.40;;;57.27;;
15327;SDS011;7764;51.430;6.840;2023-05-15T05:33:49;107.27;;;58.40;;
15327;SDS011;7764;51.430;6.840;2023-05-15T05:36:16;106.90;;;61.77;;
15327;SDS011;7764;51.430;6.840;2023-05-15T05:38:44;91.93;;;52.47;;
15327;SDS011;7764;51.430;6.840;2023-05-15T05:41:11;86.60;;;52.00;;
15327;SDS011;7764;51.430;6.840;2023-05-15T05:43:38;82.93;;;51.43;;
15327;SDS011;7764;51.430;6.840;2023-05-15T05:46:05;79.33;;;53.80;;
15327;SDS011;7764;51.430;6.840;2023-05-15T05:48:32;72.70;;;47.37;;
15327;SDS011;7764;51.430;6.840;2023-05-15T05:50:59;73.23;;;46.17;;
15327;SDS011;7764;51.430;6.840;2023-05-15T05:53:26;69.97;;;45.70;;
15327;SDS011;7764;51.430;6.840;2023-05-15T05:55:54;76.33;;;50.00;;
15327;SDS011;7764;51.430;6.840;2023-05-15T05:58:21;71.47;;;45.03;;
15327;SDS011;7764;51.430;6.840;2023-05-15T06:00:48;63.27;;;44.83;;
15327;SDS011;7764;51.430;6.840;2023-05-15T06:03:14;63.03;;;44.07;;
15327;SDS011;7764;51.430;6.840;2023-05-15T06:05:41;68.10;;;45.83;;
15327;SDS011;7764;51.430;6.840;2023-05-15T06:08:08;61.37;;;44.60;;
15327;SDS011;7764;51.430;6.840;2023-05-15T06:10:36;57.67;;;39.83;;
15327;SDS011;7764;51.430;6.840;2023-05-15T06:13:04;52.10;;;39.27;;
15327;SDS011;7764;51.430;6.840;2023-05-15T06:15:31;50.83;;;36.75;;
15327;SDS011;7764;51.430;6.840;2023-05-15T06:17:57;51.75;;;36.83;;
15327;SDS011;7764;51.430;6.840;2023-05-15T06:20:24;49.30;;;36.23;;
15327;SDS011;7764;51.430;6.840;2023-05-15T06:22:52;50.83;;;36.77;;
15327;SDS011;7764;51.430;6.840;2023-05-15T06:25:19;51.30;;;37.23;;
15327;SDS011;7764;51.430;6.840;2023-05-15T06:27:45;53.10;;;36.50;;
15327;SDS011;7764;51.430;6.840;2023-05-15T06:30:14;47.60;;;35.13;;
15327;SDS011;7764;51.430;6.840;2023-05-15T06:32:41;40.53;;;31.55;;
15327;SDS011;7764;51.430;6.840;2023-05-15T06:35:08;41.10;;;28.87;;
15327;SDS011;7764;51.430;6.840;2023-05-15T06:37:35;36.33;;;27.60;;
15327;SDS011;7764;51.430;6.840;2023-05-15T06:40:03;38.17;;;26.92;;
15327;SDS011;7764;51.430;6.840;2023-05-15T06:42:30;37.30;;;28.30;;
15327;SDS011;7764;51.430;6.840;2023-05-15T06:44:57;31.50;;;25.60;;
15327;SDS011;7764;51.430;6.840;2023-05-15T06:47:26;35.75;;;27.35;;
15327;SDS011;7764;51.430;6.840;2023-05-15T06:49:52;34.85;;;26.20;;
15327;SDS011;7764;51.430;6.840;2023-05-15T06:52:20;30.00;;;23.80;;
15327;SDS011;7764;51.430;6.840;2023-05-15T06:54:47;27.58;;;21.77;;
15327;SDS011;7764;51.430;6.840;2023-05-15T06:57:14;27.70;;;21.88;;
15327;SDS011;7764;51.430;6.840;2023-05-15T06:59:41;25.70;;;19.83;;
15327;SDS011;7764;51.430;6.840;2023-05-15T07:02:07;26.70;;;19.88;;
15327;SDS011;7764;51.430;6.840;2023-05-15T07:04:36;29.88;;;21.42;;
15327;SDS011;7764;51.430;6.840;2023-05-15T07:07:02;25.58;;;18.17;;
15327;SDS011;7764;51.430;6.840;2023-05-15T07:09:30;25.15;;;18.38;;
15327;SDS011;7764;51.430;6.840;2023-05-15T07:11:57;23.67;;;17.35;;
15327;SDS011;7764;51.430;6.840;2023-05-15T07:14:23;24.45;;;18.17;;
15327;SDS011;7764;51.430;6.840;2023-05-15T07:16:50;27.88;;;19.58;;
15327;SDS011;7764;51.430;6.840;2023-05-15T07:19:17;26.23;;;20.92;;
15327;SDS011;7764;51.430;6.840;2023-05-15T07:21:46;32.00;;;22.17;;
15327;SDS011;7764;51.430;6.840;2023-05-15T07:24:13;34.00;;;23.90;;
15327;SDS011;7764;51.430;6.840;2023-05-15T07:26:40;31.63;;;25.92;;
15327;SDS011;7764;51.430;6.840;2023-05-15T07:29:07;28.95;;;23.63;;
15327;SDS011;7764;51.430;6.840;2023-05-15T07:31:34;29.90;;;24.48;;
15327;SDS011;7764;51.430;6.840;2023-05-15T07:34:01;31.40;;;24.13;;
15327;SDS011;7764;51.430;6.840;2023-05-15T07:36:28;32.25;;;22.73;;
15327;SDS011;7764;51.430;6.840;2023-05-15T07:38:57;29.33;;;22.20;;
15327;SDS011;7764;51.430;6.840;2023-05-15T07:41:23;29.65;;;23.77;;
15327;SDS011;7764;51.430;6.840;2023-05-15T07:43:50;28.65;;;22.55;;
15327;SDS011;7764;51.430;6.840;2023-05-15T07:46:17;31.92;;;24.65;;
15327;SDS011;7764;51.430;6.840;2023-05-15T07:48:44;30.67;;;25.25;;
15327;SDS011;7764;51.430;6.840;2023-05-15T07:51:11;31.70;;;22.60;;
15327;SDS011;7764;51.430;6.840;2023-05-15T07:53:37;29.70;;;23.08;;
15327;SDS011;7764;51.430;6.840;2023-05-15T07:56:06;29.90;;;23.95;;
15327;SDS011;7764;51.430;6.840;2023-05-15T07:58:32;29.38;;;22.80;;
15327;SDS011;7764;51.430;6.840;2023-05-15T08:01:02;28.48;;;21.40;;
15327;SDS011;7764;51.430;6.840;2023-05-15T08:03:29;26.48;;;20.88;;
15327;SDS011;7764;51.430;6.840;2023-05-15T08:05:56;26.27;;;20.45;;
15327;SDS011;7764;51.430;6.840;2023-05-15T08:08:23;42.05;;;32.13;;
15327;SDS011;7764;51.430;6.840;2023-05-15T08:10:50;29.63;;;22.35;;
15327;SDS011;7764;51.430;6.840;2023-05-15T08:13:18;51.35;;;40.58;;
15327;SDS011;7764;51.430;6.840;2023-05-15T08:15:45;32.28;;;22.98;;
15327;SDS011;7764;51.430;6.840;2023-05-15T08:18:12;28.05;;;22.00;;
15327;SDS011;7764;51.430;6.840;2023-05-15T08:20:39;30.80;;;22.60;;
15327;SDS011;7764;51.430;6.840;2023-05-15T08:23:05;30.75;;;22.42;;
15327;SDS011;7764;51.430;6.840;2023-05-15T08:25:32;24.15;;;19.40;;
15327;SDS011;7764;51.430;6.840;2023-05-15T08:28:00;26.27;;;20.52;;
15327;SDS011;7764;51.430;6.840;2023-05-15T08:30:28;26.40;;;20.20;;
15327;SDS011;7764;51.430;6.840;2023-05-15T08:32:55;23.83;;;18.83;;
15327;SDS011;7764;51.430;6.840;2023-05-15T08:35:22;25.58;;;18.65;;
15327;SDS011;7764;51.430;6.840;2023-05-15T08:37:49;25.42;;;18.73;;
15327;SDS011;7764;51.430;6.840;2023-05-15T08:40:16;23.45;;;19.38;;
15327;SDS011;7764;51.430;6.840;2023-05-15T08:42:43;24.27;;;19.70;;
15327;SDS011;7764;51.430;6.840;2023-05-15T08:45:13;24.80;;;18.80;;
15327;SDS011;7764;51.430;6.840;2023-05-15T08:47:41;24.27;;;18.40;;
15327;SDS011;7764;51.430;6.840;2023-05-15T08:50:09;28.10;;;18.65;;
15327;SDS011;7764;51.430;6.840;2023-05-15T08:52:39;26.70;;;17.77;;
15327;SDS011;7764;51.430;6.840;2023-05-15T08:55:07;24.85;;;17.58;;
15327;SDS011;7764;51.430;6.840;2023-05-15T08:57:35;25.45;;;17.77;;
15327;SDS011;7764;51.430;6.840;2023-05-15T09:00:03;22.02;;;17.20;;
15327;SDS011;7764;51.430;6.840;2023-05-15T09:02:33;28.10;;;18.70;;
15327;SDS011;7764;51.430;6.840;2023-05-15T09:05:02;27.85;;;20.17;;
15327;SDS011;7764;51.430;6.840;2023-05-15T09:07:30;22.23;;;17.65;;
15327;SDS011;7764;51.430;6.840;2023-05-15T09:09:58;27.40;;;19.25;;
15327;SDS011;7764;51.430;6.840;2023-05-15T09:12:26;25.08;;;18.70;;
15327;SDS011;7764;51.430;6.840;2023-05-15T09:15:06;25.67;;;19.40;;
15327;SDS011;7764;51.430;6.840;2023-05-15T09:17:34;26.88;;;17.98;;
15327;SDS011;7764;51.430;6.840;2023-05-15T09:20:03;24.27;;;18.45;;
15327;SDS011;7764;51.430;6.840;2023-05-15T09:22:32;19.40;;;16.30;;
15327;SDS011;7764;51.430;6.840;2023-05-15T09:25:00;21.52;;;15.45;;
15327;SDS011;7764;51.430;6.840;2023-05-15T09:27:28;23.60;;;16.15;;
15327;SDS011;7764;51.430;6.840;2023-05-15T09:29:55;25.13;;;16.60;;
15327;SDS011;7764;51.430;6.840;2023-05-15T09:32:33;21.73;;;15.25;;
15327;SDS011;7764;51.430;6.840;2023-05-15T09:35:04;19.73;;;15.40;;
15327;SDS011;7764;51.430;6.840;2023-05-15T09:37:51;19.50;;;14.93;;
15327;SDS011;7764;51.430;6.840;2023-05-15T09:40:23;21.27;;;15.98;;
15327;SDS011;7764;51.430;6.840;2023-05-15T09:42:54;21.98;;;16.25;;
15327;SDS011;7764;51.430;6.840;2023-05-15T09:45:21;21.08;;;16.63;;
15327;SDS011;7764;51.430;6.840;2023-05-15T09:47:49;24.20;;;17.08;;
15327;SDS011;7764;51.430;6.840;2023-05-15T09:50:20;21.10;;;16.00;;
15327;SDS011;7764;51.430;6.840;2023-05-15T09:52:48;20.63;;;14.93;;
15327;SDS011;7764;51.430;6.840;2023-05-15T09:55:15;22.05;;;17.13;;
15327;SDS011;7764;51.430;6.840;2023-05-15T09:57:44;21.30;;;16.23;;
15327;SDS011;7764;51.430;6.840;2023-05-15T10:00:28;28.13;;;17.58;;
15327;SDS011;7764;51.430;6.840;2023-05-15T10:02:56;23.42;;;16.58;;
15327;SDS011;7764;51.430;6.840;2023-05-15T10:05:26;21.58;;;16.40;;
15327;SDS011;7764;51.430;6.840;2023-05-15T10:07:53;19.20;;;15.52;;
15327;SDS011;7764;51.430;6.840;2023-05-15T10:10:21;17.88;;;13.90;;
15327;SDS011;7764;51.430;6.840;2023-05-15T10:12:49;19.27;;;13.80;;
15327;SDS011;7764;51.430;6.840;2023-05-15T10:15:17;18.90;;;13.98;;
15327;SDS011;7764;51.430;6.840;2023-05-15T10:17:44;22.13;;;13.10;;
15327;SDS011;7764;51.430;6.840;2023-05-15T10:20:13;24.42;;;14.50;;
15327;SDS011;7764;51.430;6.840;2023-05-15T10:22:44;19.13;;;14.00;;
15327;SDS011;7764;51.430;6.840;2023-05-15T10:25:14;17.70;;;13.48;;
15327;SDS011;7764;51.430;6.840;2023-05-15T10:27:43;21.45;;;14.90;;
15327;SDS011;7764;51.430;6.840;2023-05-15T10:30:12;19.52;;;14.52;;
15327;SDS011;7764;51.430;6.840;2023-05-15T10:32:41;18.52;;;14.52;;
15327;SDS011;7764;51.430;6.840;2023-05-15T10:35:10;18.75;;;14.07;;
15327;SDS011;7764;51.430;6.840;2023-05-15T10:37:37;19.23;;;14.18;;
15327;SDS011;7764;51.430;6.840;2023-05-15T10:40:07;19.67;;;14.15;;
15327;SDS011;7764;51.430;6.840;2023-05-15T10:42:35;19.08;;;14.48;;
15327;SDS011;7764;51.430;6.840;2023-05-15T10:45:04;17.27;;;13.63;;
15327;SDS011;7764;51.430;6.840;2023-05-15T10:47:33;17.60;;;13.50;;
15327;SDS011;7764;51.430;6.840;2023-05-15T10:50:01;17.65;;;14.00;;
15327;SDS011;7764;51.430;6.840;2023-05-15T10:52:30;16.92;;;13.48;;
15327;SDS011;7764;51.430;6.840;2023-05-15T10:54:57;16.25;;;12.35;;
15327;SDS011;7764;51.430;6.840;2023-05-15T10:57:25;20.35;;;12.85;;
15327;SDS011;7764;51.430;6.840;2023-05-15T10:59:54;18.38;;;12.55;;
15327;SDS011;7764;51.430;6.840;2023-05-15T11:02:22;21.20;;;13.93;;
15327;SDS011;7764;51.430;6.840;2023-05-15T11:04:53;17.48;;;12.43;;
15327;SDS011;7764;51.430;6.840;2023-05-15T11:07:21;16.05;;;10.43;;
15327;SDS011;7764;51.430;6.840;2023-05-15T11:09:49;17.83;;;11.65;;
15327;SDS011;7764;51.430;6.840;2023-05-15T11:12:16;16.88;;;11.48;;
15327;SDS011;7764;51.430;6.840;2023-05-15T11:17:43;20.92;;;14.38;;
15327;SDS011;7764;51.430;6.840;2023-05-15T11:20:33;17.20;;;12.38;;
15327;SDS011;7764;51.430;6.840;2023-05-15T11:23:05;15.00;;;10.65;;
15327;SDS011;7764;51.430;6.840;2023-05-15T11:25:33;19.17;;;12.10;;
15327;SDS011;7764;51.430;6.840;2023-05-15T11:28:01;14.85;;;11.80;;
15327;SDS011;7764;51.430;6.840;2023-05-15T11:30:37;15.52;;;12.15;;
15327;SDS011;7764;51.430;6.840;2023-05-15T11:33:05;27.38;;;19.75;;
15327;SDS011;7764;51.430;6.840;2023-05-15T11:35:36;19.77;;;14.10;;
15327;SDS011;7764;51.430;6.840;2023-05-15T11:38:10;19.95;;;15.05;;
15327;SDS011;7764;51.430;6.840;2023-05-15T11:40:44;19.02;;;11.82;;
15327;SDS011;7764;51.430;6.840;2023-05-15T11:43:18;18.75;;;13.48;;
15327;SDS011;7764;51.430;6.840;2023-05-15T11:45:49;17.35;;;12.05;;
15327;SDS011;7764;51.430;6.840;2023-05-15T11:48:19;18.02;;;11.07;;
15327;SDS011;7764;51.430;6.840;2023-05-15T11:50:47;16.98;;;13.70;;
15327;SDS011;7764;51.430;6.840;2023-05-15T11:53:17;16.85;;;12.13;;
15327;SDS011;7764;51.430;6.840;2023-05-15T11:55:44;19.60;;;13.70;;
15327;SDS011;7764;51.430;6.840;2023-05-15T11:58:12;17.67;;;14.30;;
15327;SDS011;7764;51.430;6.840;2023-05-15T12:00:40;19.00;;;14.75;;
15327;SDS011;7764;51.430;6.840;2023-05-15T12:03:14;24.13;;;14.52;;
15327;SDS011;7764;51.430;6.840;2023-05-15T12:05:41;16.65;;;11.98;;
15327;SDS011;7764;51.430;6.840;2023-05-15T12:08:09;19.83;;;13.00;;
15327;SDS011;7764;51.430;6.840;2023-05-15T12:10:39;19.95;;;12.32;;
15327;SDS011;7764;51.430;6.840;2023-05-15T12:13:07;16.90;;;13.07;;
15327;SDS011;7764;51.430;6.840;2023-05-15T12:15:35;17.65;;;12.35;;
15327;SDS011;7764;51.430;6.840;2023-05-15T12:18:02;14.13;;;11.57;;
15327;SDS011;7764;51.430;6.840;2023-05-15T12:20:33;17.90;;;12.07;;
15327;SDS011;7764;51.430;6.840;2023-05-15T12:23:01;18.27;;;12.02;;
15327;SDS011;7764;51.430;6.840;2023-05-15T12:25:29;13.48;;;10.88;;
15327;SDS011;7764;51.430;6.840;2023-05-15T12:27:57;14.40;;;9.85;;
15327;SDS011;7764;51.430;6.840;2023-05-15T12:30:24;13.18;;;8.65;;
15327;SDS011;7764;51.430;6.840;2023-05-15T12:32:51;11.55;;;8.52;;
15327;SDS011;7764;51.430;6.840;2023-05-15T12:35:18;14.07;;;9.15;;
15327;SDS011;7764;51.430;6.840;2023-05-15T12:37:46;12.02;;;9.50;;
15327;SDS011;7764;51.430;6.840;2023-05-15T12:40:13;13.10;;;9.30;;
15327;SDS011;7764;51.430;6.840;2023-05-15T12:42:45;14.50;;;12.27;;
15327;SDS011;7764;51.430;6.840;2023-05-15T12:45:17;19.95;;;12.40;;
15327;SDS011;7764;51.430;6.840;2023-05-15T12:47:45;19.85;;;13.82;;
15327;SDS011;7764;51.430;6.840;2023-05-15T12:50:14;16.98;;;12.70;;
15327;SDS011;7764;51.430;6.840;2023-05-15T12:52:52;19.35;;;13.90;;
15327;SDS011;7764;51.430;6.840;2023-05-15T12:55:23;15.23;;;12.95;;
15327;SDS011;7764;51.430;6.840;2023-05-15T12:57:51;26.88;;;21.65;;
15327;SDS011;7764;51.430;6.840;2023-05-15T13:00:19;17.33;;;13.00;;
15327;SDS011;7764;51.430;6.840;2023-05-15T13:02:47;21.77;;;15.05;;
15327;SDS011;7764;51.430;6.840;2023-05-15T13:05:15;16.92;;;12.10;;
15327;SDS011;7764;51.430;6.840;2023-05-15T13:07:42;15.45;;;11.95;;
15327;SDS011;7764;51.430;6.840;2023-05-15T13:10:11;18.00;;;13.15;;
15327;SDS011;7764;51.430;6.840;2023-05-15T13:12:39;15.35;;;12.20;;
15327;SDS011;7764;51.430;6.840;2023-05-15T13:15:20;15.20;;;11.65;;
15327;SDS011;7764;51.430;6.840;2023-05-15T13:17:50;11.20;;;8.68;;
15327;SDS011;7764;51.430;6.840;2023-05-15T13:20:20;13.70;;;10.63;;
15327;SDS011;7764;51.430;6.840;2023-05-15T13:22:47;12.43;;;9.85;;
15327;SDS011;7764;51.430;6.840;2023-05-15T13:25:17;49.72;;;34.60;;
15327;SDS011;7764;51.430;6.840;2023-05-15T13:27:45;14.13;;;10.18;;
15327;SDS011;7764;51.430;6.840;2023-05-15T13:30:12;17.60;;;12.57;;
15327;SDS011;7764;51.430;6.840;2023-05-15T13:32:40;20.70;;;17.05;;
15327;SDS011;7764;51.430;6.840;2023-05-15T13:35:07;26.83;;;21.20;;
15327;SDS011;7764;51.430;6.840;2023-05-15T13:37:35;27.23;;;21.48;;
15327;SDS011;7764;51.430;6.840;2023-05-15T13:40:02;28.35;;;22.55;;
15327;SDS011;7764;51.430;6.840;2023-05-15T13:42:33;29.88;;;22.10;;
15327;SDS011;7764;51.430;6.840;2023-05-15T13:45:00;27.08;;;22.00;;
15327;SDS011;7764;51.430;6.840;2023-05-15T13:47:27;28.48;;;21.60;;
15327;SDS011;7764;51.430;6.840;2023-05-15T13:49:54;23.92;;;19.88;;
15327;SDS011;7764;51.430;6.840;2023-05-15T13:52:22;24.75;;;18.83;;
15327;SDS011;7764;51.430;6.840;2023-05-15T13:54:48;23.40;;;18.83;;
15327;SDS011;7764;51.430;6.840;2023-05-15T13:57:16;22.67;;;18.67;;
15327;SDS011;7764;51.430;6.840;2023-05-15T13:59:44;20.25;;;17.02;;
15327;SDS011;7764;51.430;6.840;2023-05-15T14:02:11;20.98;;;16.35;;
15327;SDS011;7764;51.430;6.840;2023-05-15T14:04:38;111.72;;;76.05;;
15327;SDS011;7764;51.430;6.840;2023-05-15T14:07:05;17.10;;;13.38;;
15327;SDS011;7764;51.430;6.840;2023-05-15T14:09:32;15.85;;;12.93;;
15327;SDS011;7764;51.430;6.840;2023-05-15T14:11:58;13.23;;;9.27;;
15327;SDS011;7764;51.430;6.840;2023-05-15T14:14:25;15.73;;;8.02;;
15327;SDS011;7764;51.430;6.840;2023-05-15T14:16:53;10.75;;;8.55;;
15327;SDS011;7764;51.430;6.840;2023-05-15T14:19:20;16.00;;;12.80;;
15327;SDS011;7764;51.430;6.840;2023-05-15T14:21:47;20.60;;;14.90;;
15327;SDS011;7764;51.430;6.840;2023-05-15T14:24:14;20.80;;;16.20;;
15327;SDS011;7764;51.430;6.840;2023-05-15T14:26:41;18.52;;;15.38;;
15327;SDS011;7764;51.430;6.840;2023-05-15T14:29:09;18.17;;;15.63;;
15327;SDS011;7764;51.430;6.840;2023-05-15T14:31:36;21.50;;;15.98;;
15327;SDS011;7764;51.430;6.840;2023-05-15T14:34:04;20.55;;;16.17;;
15327;SDS011;7764;51.430;6.840;2023-05-15T14:36:31;22.52;;;17.13;;
15327;SDS011;7764;51.430;6.840;2023-05-15T14:38:58;20.98;;;16.50;;
15327;SDS011;7764;51.430;6.840;2023-05-15T14:41:25;18.25;;;16.25;;
15327;SDS011;7764;51.430;6.840;2023-05-15T14:43:52;19.55;;;16.23;;